createdAt,value
2023-05-06T00:00:35.289Z,85.59
2023-05-06T00:03:02.152Z,85.86
2023-05-06T00:05:28.870Z,85.07
2023-05-06T00:07:55.762Z,85.39
2023-05-06T00:10:22.309Z,85.26
2023-05-06T00:12:48.959Z,85.20
2023-05-06T00:15:15.529Z,85.20
2023-05-06T00:17:42.106Z,85.38
2023-05-06T00:20:10.308Z,86.58
2023-05-06T00:22:36.720Z,87.80
2023-05-06T00:25:03.243Z,88.55
2023-05-06T00:27:29.717Z,88.05
2023-05-06T00:29:56.707Z,87.54
2023-05-06T00:32:23.194Z,86.96
2023-05-06T00:34:50.960Z,86.79
2023-05-06T00:37:17.815Z,86.62
2023-05-06T00:39:44.803Z,86.15
2023-05-06T00:42:11.292Z,86.25
2023-05-06T00:44:37.794Z,86.03
2023-05-06T00:47:04.411Z,86.32
2023-05-06T00:49:31.238Z,86.48
2023-05-06T00:51:58.815Z,86.32
2023-05-06T00:54:26.663Z,86.43
2023-05-06T00:56:53.819Z,87.25
2023-05-06T00:59:20.308Z,87.74
2023-05-06T01:01:47.223Z,88.75
2023-05-06T01:04:13.744Z,89.20
2023-05-06T01:07:06.993Z,89.10
2023-05-06T01:09:42.859Z,88.75
2023-05-06T01:12:21.311Z,89.33
2023-05-06T01:15:08.844Z,89.82
2023-05-06T01:17:42.351Z,90.12
2023-05-06T01:20:11.826Z,90.23
2023-05-06T01:22:39.013Z,89.78
2023-05-06T01:25:06.487Z,89.00
2023-05-06T01:27:33.165Z,89.35
2023-05-06T01:29:59.952Z,89.24
2023-05-06T01:32:26.475Z,88.62
2023-05-06T01:35:03.386Z,88.94
2023-05-06T01:37:33.371Z,89.05
2023-05-06T01:40:00.739Z,88.93
2023-05-06T01:42:27.641Z,88.68
2023-05-06T01:44:55.683Z,89.50
2023-05-06T01:47:22.310Z,89.05
2023-05-06T01:49:48.864Z,88.98
2023-05-06T01:52:15.799Z,89.33
2023-05-06T01:54:42.268Z,90.39
2023-05-06T01:57:08.740Z,91.41
2023-05-06T01:59:35.348Z,90.35
2023-05-06T02:02:02.024Z,89.54
2023-05-06T02:04:29.165Z,89.60
2023-05-06T02:06:55.740Z,91.15
2023-05-06T02:09:22.254Z,91.76
2023-05-06T02:11:56.270Z,91.50
2023-05-06T02:14:23.665Z,90.05
2023-05-06T02:16:51.249Z,89.50
2023-05-06T02:19:17.945Z,92.07
2023-05-06T02:21:44.439Z,93.11
2023-05-06T02:24:10.872Z,92.75
2023-05-06T02:26:37.344Z,92.70
2023-05-06T02:29:04.058Z,92.09
2023-05-06T02:31:30.702Z,91.38
2023-05-06T02:33:57.422Z,91.40
2023-05-06T02:36:23.903Z,91.73
2023-05-06T02:38:50.425Z,92.02
2023-05-06T02:41:16.912Z,91.69
2023-05-06T02:43:43.367Z,91.85
2023-05-06T02:46:09.933Z,91.02
2023-05-06T02:48:36.454Z,91.51
2023-05-06T02:51:03.923Z,92.58
2023-05-06T02:53:30.648Z,92.44
2023-05-06T02:55:57.127Z,92.68
2023-05-06T02:58:23.685Z,92.35
2023-05-06T03:00:50.681Z,91.69
2023-05-06T03:03:17.470Z,90.99
2023-05-06T03:05:43.982Z,90.89
2023-05-06T03:08:10.550Z,90.49
2023-05-06T03:10:37.140Z,90.62
2023-05-06T03:13:03.974Z,91.37
2023-05-06T03:15:31.995Z,92.84
2023-05-06T03:17:58.599Z,92.58
2023-05-06T03:20:27.215Z,93.26
2023-05-06T03:22:56.481Z,92.59
2023-05-06T03:25:23.655Z,92.38
2023-05-06T03:27:50.829Z,92.57
2023-05-06T03:30:20.914Z,92.75
2023-05-06T03:32:49.387Z,92.49
2023-05-06T03:35:22.642Z,92.57
2023-05-06T03:37:53.217Z,93.46
2023-05-06T03:40:21.793Z,93.77
2023-05-06T03:42:49.134Z,93.25
2023-05-06T03:45:15.657Z,93.00
2023-05-06T03:47:43.627Z,93.11
2023-05-06T03:50:10.828Z,93.19
2023-05-06T03:52:38.969Z,93.76
2023-05-06T03:55:06.450Z,94.43
2023-05-06T03:57:34.108Z,94.78
2023-05-06T04:00:01.109Z,93.81
2023-05-06T04:02:29.279Z,92.66
2023-05-06T04:04:57.007Z,92.67
2023-05-06T04:07:23.544Z,91.28
2023-05-06T04:09:50.659Z,91.43
2023-05-06T04:12:18.005Z,91.66
2023-05-06T04:14:45.524Z,92.14
2023-05-06T04:17:12.655Z,94.35
2023-05-06T04:19:39.314Z,94.51
2023-05-06T04:22:06.073Z,93.66
2023-05-06T04:24:33.817Z,93.71
2023-05-06T04:27:03.012Z,93.16
2023-05-06T04:29:30.319Z,93.50
2023-05-06T04:32:02.992Z,93.92
2023-05-06T04:34:31.536Z,93.52
2023-05-06T04:37:00.979Z,93.58
2023-05-06T04:39:39.380Z,92.80
2023-05-06T04:42:07.165Z,93.45
2023-05-06T04:44:43.505Z,93.56
2023-05-06T04:47:10.687Z,93.82
2023-05-06T04:49:39.523Z,93.42
2023-05-06T04:52:06.927Z,92.46
2023-05-06T04:54:33.749Z,91.58
2023-05-06T04:57:00.932Z,90.66
2023-05-06T04:59:28.202Z,88.66
2023-05-06T05:01:54.811Z,88.91
2023-05-06T05:04:21.272Z,88.98
2023-05-06T05:06:47.811Z,87.67
2023-05-06T05:09:14.920Z,87.58
2023-05-06T05:11:44.232Z,86.27
2023-05-06T05:14:10.949Z,86.29
2023-05-06T05:16:37.827Z,86.48
2023-05-06T05:19:08.960Z,86.19
2023-05-06T05:21:36.387Z,85.42
2023-05-06T05:24:04.078Z,85.06
2023-05-06T05:26:31.042Z,83.72
2023-05-06T05:28:59.306Z,83.53
2023-05-06T05:31:26.132Z,85.39
2023-05-06T05:33:52.735Z,81.40
2023-05-06T05:36:22.043Z,81.76
2023-05-06T05:38:51.330Z,81.07
2023-05-06T05:41:18.950Z,81.00
2023-05-06T05:43:45.841Z,81.28
2023-05-06T05:46:14.120Z,82.15
2023-05-06T05:48:42.236Z,81.33
2023-05-06T05:51:10.396Z,81.22
2023-05-06T05:53:36.951Z,78.66
2023-05-06T05:56:05.127Z,77.64
2023-05-06T05:58:32.131Z,77.66
2023-05-06T06:00:59.654Z,75.65
2023-05-06T06:03:26.878Z,73.42
2023-05-06T06:05:55.149Z,74.71
2023-05-06T06:08:23.118Z,75.63
2023-05-06T06:10:51.744Z,73.50
2023-05-06T06:13:22.862Z,72.53
2023-05-06T06:15:49.683Z,70.96
2023-05-06T06:18:16.411Z,73.56
2023-05-06T06:20:42.973Z,72.97
2023-05-06T06:23:09.537Z,75.44
2023-05-06T06:25:36.020Z,73.65
2023-05-06T06:28:02.530Z,73.08
2023-05-06T06:30:29.084Z,69.93
2023-05-06T06:32:56.511Z,72.16
2023-05-06T06:35:23.776Z,71.19
2023-05-06T06:37:50.669Z,70.34
2023-05-06T06:40:17.233Z,70.04
2023-05-06T06:42:43.811Z,69.24
2023-05-06T06:45:34.779Z,69.91
2023-05-06T06:48:01.372Z,70.37
2023-05-06T06:50:27.911Z,67.75
2023-05-06T06:52:54.377Z,69.52
2023-05-06T06:55:20.993Z,69.77
2023-05-06T06:57:47.738Z,66.73
2023-05-06T07:00:14.417Z,68.62
2023-05-06T07:02:40.999Z,70.80
2023-05-06T07:05:08.067Z,69.69
2023-05-06T07:07:35.047Z,68.71
2023-05-06T07:10:01.608Z,66.44
2023-05-06T07:12:28.446Z,64.29
2023-05-06T07:14:54.944Z,64.19
2023-05-06T07:17:21.431Z,62.61
2023-05-06T07:19:48.034Z,64.61
2023-05-06T07:22:14.629Z,65.41
2023-05-06T07:24:41.263Z,64.13
2023-05-06T07:27:07.712Z,63.59
2023-05-06T07:29:36.684Z,65.03
2023-05-06T07:32:03.609Z,64.34
2023-05-06T07:34:30.313Z,62.39
2023-05-06T07:36:57.257Z,63.67
2023-05-06T07:39:23.757Z,63.21
2023-05-06T07:41:50.240Z,63.13
2023-05-06T07:44:16.734Z,61.92
2023-05-06T07:46:43.285Z,61.19
2023-05-06T07:49:09.847Z,59.85
2023-05-06T07:51:36.380Z,56.16
2023-05-06T07:54:02.851Z,54.38
2023-05-06T07:56:29.326Z,54.18
2023-05-06T07:58:56.028Z,50.60
2023-05-06T08:01:22.592Z,53.21
2023-05-06T08:03:50.992Z,49.18
2023-05-06T08:06:17.752Z,49.23
2023-05-06T08:08:44.276Z,49.71
2023-05-06T08:11:10.754Z,47.15
2023-05-06T08:13:37.291Z,45.07
2023-05-06T08:16:03.976Z,44.73
2023-05-06T08:18:30.620Z,47.24
2023-05-06T08:20:57.108Z,44.33
2023-05-06T08:23:23.658Z,42.99
2023-05-06T08:25:50.190Z,43.15
2023-05-06T08:28:16.670Z,42.60
2023-05-06T08:30:43.259Z,42.84
2023-05-06T08:33:09.790Z,42.67
2023-05-06T08:35:36.295Z,43.42
2023-05-06T08:38:02.823Z,41.16
2023-05-06T08:40:30.560Z,41.74
2023-05-06T08:42:57.535Z,40.68
2023-05-06T08:45:24.180Z,41.59
2023-05-06T08:47:50.903Z,38.43
2023-05-06T08:50:17.500Z,39.02
2023-05-06T08:52:44.032Z,39.15
2023-05-06T08:55:11.379Z,38.15
2023-05-06T08:57:38.310Z,39.07
2023-05-06T09:00:05.178Z,39.46
2023-05-06T09:02:31.785Z,39.81
2023-05-06T09:04:59.633Z,39.45
2023-05-06T09:07:26.180Z,38.70
2023-05-06T09:09:52.670Z,39.83
2023-05-06T09:12:19.226Z,40.26
2023-05-06T09:14:49.217Z,40.57
2023-05-06T09:17:28.150Z,40.08
2023-05-06T09:19:56.940Z,38.07
2023-05-06T09:22:24.392Z,36.74
2023-05-06T09:24:57.097Z,36.01
2023-05-06T09:27:25.110Z,36.34
2023-05-06T09:30:06.094Z,35.81
2023-05-06T09:32:33.092Z,36.89
2023-05-06T09:35:00.178Z,37.11
2023-05-06T09:37:27.200Z,37.65
2023-05-06T09:39:57.996Z,36.87
2023-05-06T09:42:25.529Z,35.19
2023-05-06T09:44:53.935Z,36.16
2023-05-06T09:47:26.883Z,34.14
2023-05-06T09:50:00.810Z,35.75
2023-05-06T09:52:31.261Z,34.16
2023-05-06T09:54:57.911Z,36.46
2023-05-06T09:57:24.455Z,35.97
2023-05-06T09:59:54.447Z,35.22
2023-05-06T10:02:22.519Z,32.90
2023-05-06T10:04:49.511Z,33.28
2023-05-06T10:07:19.691Z,33.33
2023-05-06T10:09:46.845Z,32.56
2023-05-06T10:12:13.702Z,31.68
2023-05-06T10:14:40.447Z,30.91
2023-05-06T10:17:08.164Z,32.31
2023-05-06T10:19:35.266Z,33.90
2023-05-06T10:22:14.954Z,34.16
2023-05-06T10:24:45.887Z,34.60
2023-05-06T10:27:12.551Z,33.36
2023-05-06T10:29:39.914Z,32.55
2023-05-06T10:32:09.299Z,34.13
2023-05-06T10:34:37.865Z,34.63
2023-05-06T10:37:05.790Z,35.76
2023-05-06T10:39:32.736Z,34.52
2023-05-06T10:41:59.215Z,33.57
2023-05-06T10:44:45.660Z,33.16
2023-05-06T10:47:12.637Z,31.64
2023-05-06T10:49:39.115Z,29.67
2023-05-06T10:52:15.052Z,29.49
2023-05-06T10:54:51.878Z,28.44
2023-05-06T10:57:20.683Z,29.29
2023-05-06T10:59:48.424Z,28.48
2023-05-06T11:02:19.903Z,29.39
2023-05-06T11:04:59.544Z,27.80
2023-05-06T11:07:26.109Z,28.24
2023-05-06T11:09:59.607Z,29.30
2023-05-06T11:12:45.606Z,27.18
2023-05-06T11:15:32.380Z,27.87
2023-05-06T11:17:58.957Z,28.00
2023-05-06T11:20:26.259Z,29.42
2023-05-06T11:22:53.533Z,29.88
2023-05-06T11:25:39.084Z,29.39
2023-05-06T11:28:10.327Z,26.98
2023-05-06T11:30:40.217Z,26.91
2023-05-06T11:33:07.901Z,27.58
2023-05-06T11:35:35.537Z,27.66
2023-05-06T11:38:02.251Z,28.95
2023-05-06T11:40:32.216Z,28.86
2023-05-06T11:43:10.927Z,28.27
2023-05-06T11:45:41.415Z,29.40
2023-05-06T11:48:11.451Z,27.45
2023-05-06T11:50:37.979Z,27.83
2023-05-06T11:53:04.491Z,29.46
2023-05-06T11:55:31.242Z,32.24
2023-05-06T11:57:57.704Z,30.29
2023-05-06T12:00:24.191Z,30.66
2023-05-06T12:02:54.554Z,28.98
2023-05-06T12:05:23.015Z,31.75
2023-05-06T12:07:49.612Z,33.18
2023-05-06T12:10:17.226Z,33.87
2023-05-06T12:12:43.883Z,33.30
2023-05-06T12:15:11.246Z,32.90
2023-05-06T12:17:37.888Z,33.20
2023-05-06T12:20:04.662Z,33.83
2023-05-06T12:22:31.095Z,42.71
2023-05-06T12:24:57.829Z,42.87
2023-05-06T12:27:31.270Z,40.99
2023-05-06T12:29:58.692Z,45.97
2023-05-06T12:32:25.283Z,43.74
2023-05-06T12:34:51.793Z,49.33
2023-05-06T12:37:28.499Z,61.68
2023-05-06T12:39:58.467Z,66.23
2023-05-06T12:42:25.529Z,64.13
2023-05-06T12:44:52.000Z,64.16
2023-05-06T12:47:22.896Z,60.39
2023-05-06T12:49:51.167Z,52.13
2023-05-06T12:52:19.057Z,47.89
2023-05-06T12:54:45.932Z,49.55
2023-05-06T12:57:12.427Z,44.41
2023-05-06T12:59:39.192Z,46.22
2023-05-06T13:02:06.417Z,39.53
2023-05-06T13:04:32.961Z,39.78
2023-05-06T13:06:59.600Z,37.17
2023-05-06T13:09:26.227Z,33.91
2023-05-06T13:11:53.002Z,36.36
2023-05-06T13:14:19.522Z,35.35
2023-05-06T13:16:46.483Z,36.34
2023-05-06T13:19:30.777Z,36.87
2023-05-06T13:21:58.971Z,34.82
2023-05-06T13:24:25.549Z,34.09
2023-05-06T13:26:52.250Z,35.17
2023-05-06T13:29:19.078Z,38.78
2023-05-06T13:31:45.578Z,37.48
2023-05-06T13:34:12.772Z,36.50
2023-05-06T13:36:39.240Z,36.21
2023-05-06T13:39:05.746Z,35.69
2023-05-06T13:41:32.777Z,35.09
2023-05-06T13:43:59.381Z,36.35
2023-05-06T13:46:27.291Z,37.04
2023-05-06T13:48:53.895Z,36.89
2023-05-06T13:51:20.505Z,34.70
2023-05-06T13:53:46.965Z,34.80
2023-05-06T13:56:13.500Z,34.95
2023-05-06T13:58:39.915Z,36.23
2023-05-06T14:01:06.429Z,36.33
2023-05-06T14:03:32.966Z,39.95
2023-05-06T14:05:59.510Z,38.44
2023-05-06T14:08:26.134Z,38.25
2023-05-06T14:10:52.703Z,38.40
2023-05-06T14:13:19.299Z,36.91
2023-05-06T14:15:45.871Z,35.57
2023-05-06T14:18:12.513Z,34.66
2023-05-06T14:20:39.106Z,35.92
2023-05-06T14:23:06.907Z,35.19
2023-05-06T14:25:33.438Z,34.89
2023-05-06T14:28:00.133Z,35.60
2023-05-06T14:30:26.722Z,36.59
2023-05-06T14:32:53.228Z,35.35
2023-05-06T14:35:19.896Z,34.63
2023-05-06T14:37:46.407Z,36.22
2023-05-06T14:40:13.084Z,35.30
2023-05-06T14:42:39.578Z,35.83
2023-05-06T14:45:06.516Z,36.70
2023-05-06T14:47:33.009Z,35.21
2023-05-06T14:49:59.584Z,35.52
2023-05-06T14:52:26.126Z,36.49
2023-05-06T14:54:52.638Z,36.01
2023-05-06T14:57:19.190Z,34.57
2023-05-06T14:59:46.107Z,33.96
2023-05-06T15:02:12.747Z,35.50
2023-05-06T15:04:39.185Z,35.57
2023-05-06T15:07:05.678Z,36.23
2023-05-06T15:09:32.179Z,34.81
2023-05-06T15:11:58.756Z,35.72
2023-05-06T15:14:25.276Z,35.97
2023-05-06T15:16:56.389Z,36.50
2023-05-06T15:19:22.965Z,36.88
2023-05-06T15:21:49.454Z,37.02
2023-05-06T15:24:15.900Z,36.06
2023-05-06T15:26:42.637Z,36.72
2023-05-06T15:29:09.228Z,37.17
2023-05-06T15:31:39.103Z,38.30
2023-05-06T15:34:06.388Z,38.78
2023-05-06T15:36:32.868Z,39.42
2023-05-06T15:39:00.681Z,40.06
2023-05-06T15:41:28.386Z,40.39
2023-05-06T15:43:56.348Z,41.27
2023-05-06T15:46:23.026Z,39.56
2023-05-06T15:48:54.462Z,40.25
2023-05-06T15:51:35.607Z,40.78
2023-05-06T15:54:02.052Z,40.08
2023-05-06T15:56:28.489Z,41.72
2023-05-06T15:58:55.299Z,42.16
2023-05-06T16:01:31.635Z,43.32
2023-05-06T16:04:08.670Z,43.19
2023-05-06T16:06:35.480Z,43.28
2023-05-06T16:09:02.056Z,43.35
2023-05-06T16:11:28.565Z,43.01
2023-05-06T16:13:56.414Z,43.18
2023-05-06T16:16:22.996Z,44.12
2023-05-06T16:18:49.574Z,46.06
2023-05-06T16:21:16.086Z,47.39
2023-05-06T16:23:42.491Z,49.35
2023-05-06T16:26:09.051Z,50.16
2023-05-06T16:28:36.017Z,50.43
2023-05-06T16:31:03.730Z,49.68
2023-05-06T16:33:30.515Z,52.29
2023-05-06T16:35:57.043Z,51.81
2023-05-06T16:38:23.814Z,51.83
2023-05-06T16:40:51.147Z,51.99
2023-05-06T16:43:18.711Z,53.46
2023-05-06T16:45:45.766Z,53.93
2023-05-06T16:48:14.001Z,53.93
2023-05-06T16:50:40.864Z,53.15
2023-05-06T16:53:08.099Z,53.53
2023-05-06T16:55:34.806Z,55.47
2023-05-06T16:58:02.131Z,57.90
2023-05-06T17:00:28.902Z,60.08
2023-05-06T17:02:55.830Z,60.53
2023-05-06T17:05:22.569Z,63.22
2023-05-06T17:07:50.316Z,63.63
2023-05-06T17:10:17.528Z,62.90
2023-05-06T17:12:44.065Z,63.61
2023-05-06T17:15:11.316Z,63.78
2023-05-06T17:17:37.797Z,64.70
2023-05-06T17:20:05.266Z,64.97
2023-05-06T17:22:31.816Z,62.99
2023-05-06T17:24:58.330Z,61.56
2023-05-06T17:27:24.747Z,65.30
2023-05-06T17:29:51.374Z,65.38
2023-05-06T17:32:18.216Z,63.58
2023-05-06T17:34:45.649Z,65.05
2023-05-06T17:37:12.252Z,66.85
2023-05-06T17:39:38.859Z,67.08
2023-05-06T17:42:05.442Z,67.28
2023-05-06T17:44:32.930Z,67.98
2023-05-06T17:46:59.593Z,67.71
2023-05-06T17:49:26.186Z,69.04
2023-05-06T17:51:52.743Z,68.88
2023-05-06T17:54:19.257Z,71.11
2023-05-06T17:56:50.383Z,73.85
2023-05-06T17:59:17.769Z,74.28
2023-05-06T18:01:44.325Z,74.40
2023-05-06T18:04:11.383Z,73.89
2023-05-06T18:06:37.875Z,73.95
2023-05-06T18:09:04.591Z,71.89
2023-05-06T18:11:31.075Z,73.43
2023-05-06T18:14:00.231Z,74.03
2023-05-06T18:16:26.774Z,73.58
2023-05-06T18:18:53.374Z,74.71
2023-05-06T18:21:19.800Z,75.82
2023-05-06T18:23:46.264Z,75.60
2023-05-06T18:26:12.746Z,75.23
2023-05-06T18:28:39.741Z,74.76
2023-05-06T18:31:06.453Z,74.96
2023-05-06T18:33:33.134Z,76.01
2023-05-06T18:35:59.772Z,75.87
2023-05-06T18:38:26.547Z,74.96
2023-05-06T18:40:53.338Z,77.18
2023-05-06T18:43:19.946Z,78.54
2023-05-06T18:45:46.625Z,78.65
2023-05-06T18:48:13.185Z,76.40
2023-05-06T18:50:41.244Z,77.42
2023-05-06T18:53:07.716Z,78.03
2023-05-06T18:55:34.143Z,76.64
2023-05-06T18:58:05.651Z,77.93
2023-05-06T19:00:32.627Z,79.16
2023-05-06T19:02:59.156Z,79.83
2023-05-06T19:05:25.769Z,77.28
2023-05-06T19:07:52.337Z,77.78
2023-05-06T19:10:18.896Z,77.86
2023-05-06T19:12:45.570Z,76.98
2023-05-06T19:15:13.940Z,76.31
2023-05-06T19:17:40.709Z,77.20
2023-05-06T19:20:08.101Z,78.50
2023-05-06T19:22:34.655Z,80.87
2023-05-06T19:25:01.401Z,80.48
2023-05-06T19:27:28.727Z,80.57
2023-05-06T19:29:55.218Z,82.29
2023-05-06T19:32:21.686Z,82.19
2023-05-06T19:34:48.253Z,84.35
2023-05-06T19:37:14.741Z,84.24
2023-05-06T19:39:41.424Z,84.19
2023-05-06T19:42:08.587Z,84.69
2023-05-06T19:44:35.107Z,84.23
2023-05-06T19:47:01.550Z,83.86
2023-05-06T19:49:28.108Z,84.27
2023-05-06T19:51:54.543Z,84.62
2023-05-06T19:54:22.344Z,83.95
2023-05-06T19:56:48.871Z,84.75
2023-05-06T19:59:17.553Z,84.83
2023-05-06T20:01:44.266Z,84.62
2023-05-06T20:04:10.941Z,85.82
2023-05-06T20:06:37.432Z,86.18
2023-05-06T20:09:03.897Z,86.97
2023-05-06T20:11:30.441Z,87.54
2023-05-06T20:13:56.955Z,87.63
2023-05-06T20:16:23.776Z,87.78
2023-05-06T20:18:51.526Z,88.23
2023-05-06T20:21:17.985Z,87.58
2023-05-06T20:23:44.700Z,87.61
2023-05-06T20:26:11.207Z,86.85
2023-05-06T20:28:39.179Z,87.63
2023-05-06T20:31:06.360Z,87.61
2023-05-06T20:33:32.838Z,87.16
2023-05-06T20:35:59.264Z,90.05
2023-05-06T20:38:27.133Z,90.73
2023-05-06T20:40:53.638Z,90.86
2023-05-06T20:43:20.092Z,90.76
2023-05-06T20:45:46.657Z,90.52
2023-05-06T20:48:14.955Z,89.90
2023-05-06T20:50:41.910Z,90.36
2023-05-06T20:53:08.395Z,90.58
2023-05-06T20:55:35.008Z,90.72
2023-05-06T20:58:01.472Z,90.13
2023-05-06T21:00:28.063Z,89.31
2023-05-06T21:02:54.607Z,88.96
2023-05-06T21:05:21.164Z,88.32
2023-05-06T21:07:47.688Z,87.94
2023-05-06T21:10:14.585Z,88.79
2023-05-06T21:12:46.561Z,89.39
2023-05-06T21:15:13.502Z,91.22
2023-05-06T21:17:40.270Z,92.61
2023-05-06T21:20:07.204Z,93.86
2023-05-06T21:22:33.735Z,94.74
2023-05-06T21:25:00.211Z,93.74
2023-05-06T21:27:26.684Z,92.80
2023-05-06T21:29:53.240Z,92.56
2023-05-06T21:32:19.907Z,92.41
2023-05-06T21:34:46.359Z,92.37
2023-05-06T21:37:12.839Z,92.80
2023-05-06T21:39:39.270Z,92.84
2023-05-06T21:42:05.710Z,92.71
2023-05-06T21:44:32.173Z,92.74
2023-05-06T21:46:58.886Z,92.47
2023-05-06T21:49:25.352Z,92.51
2023-05-06T21:51:51.806Z,92.99
2023-05-06T21:54:18.338Z,92.40
2023-05-06T21:56:44.821Z,91.64
2023-05-06T21:59:11.337Z,90.57
2023-05-06T22:01:38.520Z,92.39
2023-05-06T22:04:11.107Z,93.27
2023-05-06T22:06:38.186Z,94.55
2023-05-06T22:09:09.106Z,94.93
2023-05-06T22:11:38.726Z,95.29
2023-05-06T22:14:06.415Z,94.97
2023-05-06T22:16:33.995Z,96.18
2023-05-06T22:19:00.889Z,95.51
2023-05-06T22:21:28.933Z,93.75
2023-05-06T22:23:55.365Z,94.08
2023-05-06T22:26:21.860Z,93.88
2023-05-06T22:28:48.332Z,94.91
2023-05-06T22:31:15.564Z,95.07
2023-05-06T22:33:42.113Z,94.60
2023-05-06T22:36:08.600Z,94.98
2023-05-06T22:38:35.228Z,95.00
2023-05-06T22:41:01.672Z,94.17
2023-05-06T22:43:28.116Z,94.54
2023-05-06T22:45:54.640Z,94.65
2023-05-06T22:48:21.591Z,96.00
2023-05-06T22:50:48.050Z,96.44
2023-05-06T22:53:15.635Z,96.73
2023-05-06T22:55:42.513Z,96.83
2023-05-06T22:58:09.348Z,95.91
2023-05-06T23:00:35.808Z,96.48
2023-05-06T23:03:02.824Z,97.16
2023-05-06T23:05:29.435Z,96.22
2023-05-06T23:07:56.044Z,95.50
2023-05-06T23:10:22.532Z,94.99
2023-05-06T23:12:49.065Z,93.85
2023-05-06T23:15:15.548Z,93.71
2023-05-06T23:17:42.025Z,95.13
2023-05-06T23:20:08.744Z,95.35
2023-05-06T23:22:35.645Z,95.27
2023-05-06T23:25:02.119Z,94.66
2023-05-06T23:27:28.547Z,93.97
2023-05-06T23:29:55.021Z,95.17
2023-05-06T23:32:21.451Z,94.14
2023-05-06T23:34:49.080Z,95.27
2023-05-06T23:37:17.454Z,95.40
2023-05-06T23:39:44.021Z,95.15
2023-05-06T23:42:11.239Z,95.14
2023-05-06T23:44:37.709Z,95.05
2023-05-06T23:47:04.173Z,94.96
2023-05-06T23:49:31.217Z,94.52
2023-05-06T23:51:57.732Z,94.67
2023-05-06T23:54:24.252Z,95.47
2023-05-06T23:56:50.833Z,95.34
2023-05-06T23:59:17.261Z,95.83
